createdAt,value
2018-08-12T00:01:23.757Z,2.28
2018-08-12T00:07:18.797Z,2.07
2018-08-12T00:13:13.818Z,2.06
2018-08-12T00:19:08.815Z,2.24
2018-08-12T00:25:03.866Z,2.26
2018-08-12T00:30:58.809Z,2.12
2018-08-12T00:36:53.829Z,2.07
2018-08-12T00:42:48.795Z,2.15
2018-08-12T00:48:43.865Z,2.49
2018-08-12T00:54:38.840Z,2.08
2018-08-12T01:00:33.798Z,2.54
2018-08-12T01:06:28.866Z,2.3
2018-08-12T01:12:23.825Z,2.11
2018-08-12T01:18:18.865Z,2.21
2018-08-12T01:24:13.893Z,2.16
2018-08-12T01:30:08.820Z,2.46
2018-08-12T01:36:03.976Z,2.36
2018-08-12T01:41:58.836Z,2.13
2018-08-12T01:47:53.858Z,2.44
2018-08-12T01:53:48.837Z,2.55
2018-08-12T01:59:43.857Z,3.01
2018-08-12T02:05:38.881Z,2.49
2018-08-12T02:11:33.883Z,2.51
2018-08-12T02:17:28.910Z,2.06
2018-08-12T02:23:23.863Z,2.4
2018-08-12T02:29:18.937Z,2.73
2018-08-12T02:35:13.888Z,2.54
2018-08-12T02:41:08.907Z,2.83
2018-08-12T02:47:03.921Z,2.71
2018-08-12T02:52:58.934Z,2.64
2018-08-12T02:58:53.922Z,2.18
2018-08-12T03:04:48.944Z,2.85
2018-08-12T03:10:43.946Z,2.51
2018-08-12T03:16:38.940Z,2.6
2018-08-12T03:22:34.064Z,2.64
2018-08-12T03:28:28.925Z,2.51
2018-08-12T03:34:23.927Z,2.42
2018-08-12T03:40:18.945Z,2.53
2018-08-12T03:46:13.980Z,2.27
2018-08-12T03:52:08.967Z,2.37
2018-08-12T03:58:03.985Z,2.4
2018-08-12T04:03:58.949Z,2.49
2018-08-12T04:09:53.979Z,2.43
2018-08-12T04:15:48.984Z,2.6
2018-08-12T04:21:43.997Z,2.41
2018-08-12T04:27:38.991Z,2.35
2018-08-12T04:33:33.974Z,2.55
2018-08-12T04:39:28.998Z,2.4
2018-08-12T04:45:24.013Z,2.74
2018-08-12T04:51:19.043Z,2.65
2018-08-12T04:57:14.048Z,2.38
2018-08-12T05:03:08.979Z,2.54
2018-08-12T05:09:03.995Z,2.46
2018-08-12T05:14:59.077Z,2.55
2018-08-12T05:20:54.068Z,2.92
2018-08-12T05:26:49.079Z,2.68
2018-08-12T05:32:44.030Z,2.88
2018-08-12T05:38:39.044Z,2.89
2018-08-12T05:44:34.050Z,2.5
2018-08-12T05:50:29.079Z,3
2018-08-12T05:56:24.029Z,2.76
2018-08-12T06:02:19.067Z,2.96
2018-08-12T06:08:14.135Z,2.67
2018-08-12T06:14:09.065Z,2.9
2018-08-12T06:20:04.110Z,2.66
2018-08-12T06:25:59.070Z,2.9
2018-08-12T06:31:54.099Z,2.97
2018-08-12T06:37:49.120Z,2.93
2018-08-12T06:43:44.111Z,2.7
2018-08-12T06:49:39.100Z,2.58
2018-08-12T06:55:34.067Z,2.97
2018-08-12T07:01:29.109Z,2.76
2018-08-12T07:07:24.076Z,2.6
2018-08-12T07:13:19.136Z,2.65
2018-08-12T07:19:14.120Z,2.77
2018-08-12T07:25:09.149Z,2.8
2018-08-12T07:31:04.090Z,2.66
2018-08-12T07:36:59.127Z,2.8
2018-08-12T07:42:54.114Z,2.86
2018-08-12T07:48:49.187Z,3.32
2018-08-12T07:54:44.204Z,2.78
2018-08-12T08:00:39.167Z,3.05
2018-08-12T08:06:34.143Z,2.43
2018-08-12T08:12:29.208Z,2.34
2018-08-12T08:18:24.264Z,2.26
2018-08-12T08:24:19.226Z,2.45
2018-08-12T08:30:14.161Z,2.71
2018-08-12T08:36:09.289Z,2.79
2018-08-12T08:42:04.194Z,2.49
2018-08-12T08:47:59.221Z,2.54
2018-08-12T08:53:54.226Z,2.3
2018-08-12T08:59:49.196Z,2.53
2018-08-12T09:05:44.204Z,2.47
2018-08-12T09:11:39.205Z,2.25
2018-08-12T09:17:34.280Z,2.97
2018-08-12T09:23:29.208Z,2.83
2018-08-12T09:29:24.190Z,2.29
2018-08-12T09:35:19.210Z,2.65
2018-08-12T09:41:14.234Z,2.55
2018-08-12T09:47:09.266Z,2.7
2018-08-12T09:53:04.261Z,7.59
2018-08-12T09:58:59.269Z,2.24
2018-08-12T10:04:54.266Z,2.06
2018-08-12T10:10:49.245Z,2.43
2018-08-12T10:16:44.327Z,2.19
2018-08-12T10:22:39.288Z,2.17
2018-08-12T10:28:34.263Z,2.67
2018-08-12T10:34:29.267Z,2.03
2018-08-12T10:40:24.335Z,2.27
2018-08-12T10:46:19.289Z,2.07
2018-08-12T10:52:14.288Z,2.07
2018-08-12T10:58:09.306Z,2.12
2018-08-12T11:04:04.334Z,1.71
2018-08-12T11:09:59.316Z,2.03
2018-08-12T11:15:54.348Z,2.13
2018-08-12T11:21:49.318Z,1.9
2018-08-12T11:27:44.317Z,1.84
2018-08-12T11:33:39.336Z,1.78
2018-08-12T11:39:34.321Z,1.75
2018-08-12T11:45:29.371Z,5.48
2018-08-12T11:51:24.361Z,1.45
2018-08-12T11:57:19.380Z,1.67
2018-08-12T12:03:14.390Z,1.36
2018-08-12T12:09:09.350Z,1.3
2018-08-12T12:15:04.416Z,1.07
2018-08-12T12:20:59.423Z,1.08
2018-08-12T12:26:54.385Z,1.1
2018-08-12T12:32:49.378Z,0.9
2018-08-12T12:38:44.417Z,0.81
2018-08-12T12:44:39.378Z,0.96
2018-08-12T12:50:34.394Z,1.02
2018-08-12T12:56:29.576Z,1.08
2018-08-12T13:02:24.403Z,1.4
2018-08-12T13:08:19.403Z,1.04
2018-08-12T13:14:14.464Z,1.33
2018-08-12T13:20:09.494Z,1.43
2018-08-12T13:26:04.444Z,1.33
2018-08-12T13:31:59.429Z,1.51
2018-08-12T13:37:54.520Z,1.6
2018-08-12T13:43:49.471Z,1.71
2018-08-12T13:49:44.517Z,1.54
2018-08-12T13:55:39.491Z,1.6
2018-08-12T14:01:34.530Z,1.61
2018-08-12T14:07:29.469Z,1.48
2018-08-12T14:13:24.478Z,1.64
2018-08-12T14:19:19.531Z,1.36
2018-08-12T14:25:14.515Z,1.13
2018-08-12T14:31:09.558Z,1.38
2018-08-12T14:37:04.549Z,1.26
2018-08-12T14:42:59.517Z,1.2
2018-08-12T14:48:54.544Z,1.04
2018-08-12T14:54:49.600Z,1.37
2018-08-12T15:00:44.520Z,1.24
2018-08-12T15:06:39.516Z,1.13
2018-08-12T15:12:34.546Z,1.07
2018-08-12T15:18:29.529Z,1.74
2018-08-12T15:24:24.563Z,1.32
2018-08-12T15:30:19.579Z,1.4
2018-08-12T15:36:14.616Z,1.32
2018-08-12T15:42:09.629Z,1.73
2018-08-12T15:48:04.577Z,1.77
2018-08-12T15:53:59.570Z,2.12
2018-08-12T15:59:54.600Z,1.53
2018-08-12T16:05:49.606Z,1.6
2018-08-12T16:11:44.610Z,1.63
2018-08-12T16:17:39.614Z,1.67
2018-08-12T16:23:34.579Z,1.84
2018-08-12T16:29:29.585Z,2.12
2018-08-12T16:35:24.617Z,1.6
2018-08-12T16:41:19.625Z,2.15
2018-08-12T16:47:14.618Z,2.15
2018-08-12T16:53:09.605Z,2.12
2018-08-12T16:59:04.641Z,2.05
2018-08-12T17:04:59.643Z,2.38
2018-08-12T17:10:54.608Z,2.7
2018-08-12T17:16:49.729Z,2.37
2018-08-12T17:22:44.652Z,2.6
2018-08-12T17:28:39.689Z,2.41
2018-08-12T17:34:34.747Z,2.6
2018-08-12T17:40:29.680Z,3.03
2018-08-12T17:46:24.660Z,2.9
2018-08-12T17:52:19.677Z,3.05
2018-08-12T17:58:14.687Z,2.6
2018-08-12T18:04:09.697Z,2.81
2018-08-12T18:10:04.672Z,2.27
2018-08-12T18:15:59.711Z,3.39
2018-08-12T18:21:54.693Z,3.08
2018-08-12T18:27:49.731Z,3.06
2018-08-12T18:33:44.736Z,2.43
2018-08-12T18:39:39.782Z,2.74
2018-08-12T18:45:34.725Z,2.54
2018-08-12T18:51:29.801Z,3.03
2018-08-12T18:57:24.747Z,3.58
2018-08-12T19:03:19.828Z,2.5
2018-08-12T19:09:14.775Z,2.86
2018-08-12T19:15:09.828Z,3.18
2018-08-12T19:21:04.771Z,3.57
2018-08-12T19:26:59.807Z,2.98
2018-08-12T19:32:54.797Z,3.29
2018-08-12T19:38:49.833Z,3.07
2018-08-12T19:44:44.855Z,3.29
2018-08-12T19:50:39.774Z,2.62
2018-08-12T19:56:34.804Z,2.82
2018-08-12T20:02:29.781Z,2.87
2018-08-12T20:08:24.824Z,3.75
2018-08-12T20:14:19.804Z,3.32
2018-08-12T20:20:14.850Z,2.76
2018-08-12T20:26:09.842Z,2.51
2018-08-12T20:32:04.824Z,3.04
2018-08-12T20:37:59.812Z,3.01
2018-08-12T20:43:54.911Z,3.02
2018-08-12T20:49:49.853Z,3.33
2018-08-12T20:55:44.829Z,2.61
2018-08-12T21:01:39.850Z,3.29
2018-08-12T21:07:34.838Z,3.14
2018-08-12T21:13:29.844Z,3.13
2018-08-12T21:19:24.848Z,3.67
2018-08-12T21:25:19.865Z,3.74
2018-08-12T21:31:14.893Z,3.35
2018-08-12T21:37:09.839Z,3.47
2018-08-12T21:43:04.884Z,2.75
2018-08-12T21:48:59.899Z,3.42
2018-08-12T21:54:54.906Z,3.27
2018-08-12T22:00:49.903Z,3.54
2018-08-12T22:06:44.892Z,3.33
2018-08-12T22:12:39.883Z,3.87
2018-08-12T22:18:34.900Z,3.37
2018-08-12T22:24:29.915Z,3.73
2018-08-12T22:30:24.945Z,3.13
2018-08-12T22:36:19.942Z,3.28
2018-08-12T22:42:14.920Z,3.4
2018-08-12T22:48:09.993Z,3.59
2018-08-12T22:54:04.933Z,3.86
2018-08-12T22:59:59.967Z,4
2018-08-12T23:05:55.021Z,3.4
2018-08-12T23:11:49.985Z,3.44
2018-08-12T23:17:44.992Z,3.94
2018-08-12T23:23:39.985Z,3.41
2018-08-12T23:29:35.011Z,3.31
2018-08-12T23:35:29.974Z,3.43
2018-08-12T23:41:24.979Z,3.42
2018-08-12T23:47:19.972Z,3.4
2018-08-12T23:53:14.979Z,4.22
2018-08-12T23:59:10.044Z,3.35
